Geian Maru — JD4125 — position and weather

sailwx.info

Track history (hours):
 
Tides and Currents Weather Stations Pressure Air Temp Water Temp Dewpoint Dewpoint Depression Visibility Wind Speed Wind Dir Waves Ship Positions

Geian Maru

Last reported at 2017-Dec-17 00:00 UTC. Time now 2017-Dec-17 00:29 UTC.
Position N 33°59' E 130°59'.

Length 62 m; draft 4.3 m.

Type: Cargo ship. MMSI: 431008867.

Date/timePositionNaut miles runAvg speedWind from/ knotsBaromVisibWave heightAir tempDewpointWater temp
2017-Dec-17 00:00N 33°59' E 130°59'510.7
2017-Dec-16 23:30N 33°57' E 131°05'0 0.6
2017-Dec-16 22:59N 33°57' E 131°06'0 0.0
2017-Dec-16 22:28N 33°57' E 131°06'0 0.0
2017-Dec-16 21:58N 33°57' E 131°06'0 0.0
2017-Dec-16 21:28N 33°57' E 131°06'0 0.0
2017-Dec-16 20:58N 33°57' E 131°06'0 0.0
2017-Dec-16 20:28N 33°57' E 131°06'0 0.0
2017-Dec-16 19:55N 33°57' E 131°06'0 0.0
2017-Dec-16 19:25N 33°57' E 131°06'0 0.0
2017-Dec-16 18:58N 33°57' E 131°06'0 0.0
2017-Dec-16 18:28N 33°57' E 131°06'0 0.0
2017-Dec-16 17:58N 33°57' E 131°06'0 0.0
2017-Dec-16 17:28N 33°57' E 131°06'0 0.0
2017-Dec-16 16:58N 33°57' E 131°06'0 0.0
2017-Dec-16 16:28N 33°57' E 131°06'0 0.0
2017-Dec-16 15:58N 33°57' E 131°06'0 0.0
2017-Dec-16 15:28N 33°57' E 131°06'0 0.0
2017-Dec-16 14:58N 33°57' E 131°06'0 0.0
2017-Dec-16 14:28N 33°57' E 131°06'0 0.0
2017-Dec-16 13:58N 33°57' E 131°06'0 0.0
2017-Dec-16 13:28N 33°57' E 131°06'0 0.0
2017-Dec-16 12:58N 33°57' E 131°06'0 0.0
2017-Dec-16 12:28N 33°57' E 131°06'0 0.0
2017-Dec-16 11:58N 33°57' E 131°06'0 0.0
2017-Dec-16 11:28N 33°57' E 131°06'0 0.0
2017-Dec-16 10:58N 33°57' E 131°06'1 2.3
2017-Dec-16 10:30N 33°56' E 131°06'510.8
2017-Dec-16 10:00N 33°51' E 131°10'510.6
2017-Dec-16 09:31N 33°49' E 131°15'510.9
2017-Dec-16 09:00N 33°46' E 131°21'510.7
2017-Dec-16 08:31N 33°45' E 131°27'510.3
2017-Dec-16 08:00N 33°43' E 131°33'510.0
2017-Dec-16 07:30N 33°42' E 131°39'610.0
2017-Dec-16 06:56N 33°38' E 131°44'511.1
2017-Dec-16 06:31N 33°34' E 131°47'611.2
2017-Dec-16 05:59N 33°28' E 131°46'510.9
2017-Dec-16 05:30N 33°23' E 131°43'510.6
2017-Dec-16 05:00N 33°19' E 131°40'3 0.2
2017-Dec-15 12:10N 33°16' E 131°40'2 6.8
2017-Dec-15 11:52N 33°18' E 131°40'512.3
2017-Dec-15 11:29N 33°20' E 131°45'1111.8
2017-Dec-15 10:31N 33°29' E 131°54'012.3
2017-Dec-15 10:29N 33°29' E 131°55'3511.9
2017-Dec-15 07:35N 33°48' E 132°29'112.2
2017-Dec-15 07:30N 33°49' E 132°30'612.0
2017-Dec-15 07:00N 33°53' E 132°36'912.5
2017-Dec-15 06:19N 33°59' E 132°43'98 2.3
2017-Dec-13 11:06N 34°41' E 134°30'111.0
2017-Dec-13 11:00N 34°41' E 134°31'510.0
2017-Dec-13 10:30N 34°41' E 134°37'510.4
2017-Dec-13 10:00N 34°40' E 134°43'510.5
2017-Dec-13 09:30N 34°39' E 134°49'510.7
2017-Dec-13 09:00N 34°37' E 134°56'611.1
2017-Dec-13 08:31N 34°37' E 135°02'510.8
2017-Dec-13 08:01N 34°36' E 135°09'510.8
2017-Dec-13 07:30N 34°37' E 135°15'510.6
2017-Dec-13 07:00N 34°36' E 135°22'4 8.5
2017-Dec-13 06:30N 34°35' E 135°27'0 0.2
2017-Dec-13 05:58N 34°35' E 135°27'0 0.0
2017-Dec-13 05:25N 34°35' E 135°27'0 0.0
2017-Dec-13 04:52N 34°35' E 135°27'0 0.0
2017-Dec-13 04:28N 34°35' E 135°27'0 0.0
2017-Dec-13 03:58N 34°35' E 135°27'0 0.0
2017-Dec-13 03:28N 34°35' E 135°27'0 0.0
2017-Dec-13 02:52N 34°35' E 135°27'0 0.0
2017-Dec-13 02:28N 34°35' E 135°27'0 0.0
2017-Dec-13 01:58N 34°35' E 135°27'0 0.0
2017-Dec-13 01:28N 34°35' E 135°27'0 0.0
2017-Dec-13 00:58N 34°35' E 135°27'0 0.0
2017-Dec-13 00:28N 34°35' E 135°27'0 0.0
2017-Dec-12 23:58N 34°35' E 135°27'0 0.0
2017-Dec-12 23:25N 34°35' E 135°27'0 0.0
2017-Dec-12 22:58N 34°35' E 135°27'0 0.1
2017-Dec-12 22:31N 34°35' E 135°27'0 0.8
2017-Dec-12 21:58N 34°35' E 135°27'0 0.0
2017-Dec-12 21:30N 34°35' E 135°27'0 0.0
2017-Dec-12 20:57N 34°35' E 135°27'0 0.0
2017-Dec-12 20:30N 34°35' E 135°27'0 0.0
2017-Dec-12 20:00N 34°35' E 135°27'0 0.0
2017-Dec-12 19:30N 34°35' E 135°27'0 0.0
2017-Dec-12 19:00N 34°35' E 135°27'0 0.0
2017-Dec-12 18:30N 34°35' E 135°27'0 0.0
2017-Dec-12 18:00N 34°35' E 135°27'0 0.0
2017-Dec-12 17:30N 34°35' E 135°27'0 0.0
2017-Dec-12 17:00N 34°35' E 135°27'0 0.0
2017-Dec-12 16:27N 34°35' E 135°27'0 0.0
2017-Dec-12 16:00N 34°35' E 135°27'0 0.0
2017-Dec-12 15:30N 34°35' E 135°27'0 0.0
2017-Dec-12 15:00N 34°35' E 135°27'0 0.0
2017-Dec-12 14:30N 34°35' E 135°27'0 0.0
2017-Dec-12 14:00N 34°35' E 135°27'0 0.0
2017-Dec-12 13:30N 34°35' E 135°27'0 0.0
2017-Dec-12 13:00N 34°35' E 135°27'0 0.0
2017-Dec-12 12:30N 34°35' E 135°27'0 0.0
2017-Dec-12 12:00N 34°35' E 135°27'0 0.0
2017-Dec-12 11:30N 34°35' E 135°27'0 0.0
2017-Dec-12 11:00N 34°35' E 135°27'0 0.0
2017-Dec-12 10:30N 34°35' E 135°27'0 0.0
2017-Dec-12 10:00N 34°35' E 135°27'0 0.2
2017-Dec-12 09:28N 34°35' E 135°27'1 1.1
2017-Dec-12 08:55N 34°35' E 135°26'0 0.0
2017-Dec-12 08:28N 34°35' E 135°26'0 0.0
2017-Dec-12 07:55N 34°35' E 135°26'0 0.0
2017-Dec-12 07:28N 34°35' E 135°26'0 0.0
2017-Dec-12 06:55N 34°35' E 135°26'0 0.0
2017-Dec-12 06:25N 34°35' E 135°26'0 0.0
2017-Dec-12 05:58N 34°35' E 135°26'0 0.0
2017-Dec-12 05:25N 34°35' E 135°26'0 0.0
2017-Dec-12 04:58N 34°35' E 135°26'0 0.0
2017-Dec-12 04:28N 34°35' E 135°26'0 0.0
2017-Dec-12 03:58N 34°35' E 135°26'0 0.0
2017-Dec-12 03:28N 34°35' E 135°26'0 0.0
2017-Dec-12 02:58N 34°35' E 135°26'0 0.0
2017-Dec-12 02:25N 34°35' E 135°26'0 0.0
2017-Dec-12 01:58N 34°35' E 135°26'0 0.0
2017-Dec-12 01:28N 34°35' E 135°26'0 0.0
2017-Dec-12 00:58N 34°35' E 135°26'1 2.8
2017-Dec-12 00:31N 34°36' E 135°25'510.3
2017-Dec-12 00:00N 34°35' E 135°19'510.6
2017-Dec-11 23:31N 34°35' E 135°12'611.5
2017-Dec-11 23:00N 34°35' E 135°05'611.4
2017-Dec-11 22:31N 34°37' E 134°59'611.2
2017-Dec-11 22:00N 34°35' E 134°53'510.8
2017-Dec-11 21:30N 34°33' E 134°47'510.7
2017-Dec-11 21:00N 34°31' E 134°40'611.6
2017-Dec-11 20:29N 34°32' E 134°33'95 9.6
2017-Dec-11 10:40N 34°04' E 132°44'211.0
2017-Dec-11 10:30N 34°03' E 132°42'510.7
2017-Dec-11 10:00N 34°00' E 132°36'27 9.8
2017-Dec-11 07:18N 33°51' E 132°06'510.3
2017-Dec-11 06:48N 33°53' E 132°01'411.0
2017-Dec-11 06:24N 33°56' E 131°57'2 5.5
2017-Dec-11 06:00N 33°57' E 131°56'0 0.0
2017-Dec-11 05:30N 33°57' E 131°56'2 0.0
2017-Dec-09 13:56N 33°56' E 131°56'811.9
2017-Dec-09 13:17N 33°52' E 132°04'310.4
2017-Dec-09 13:00N 33°50' E 132°07'1012.0
2017-Dec-09 12:10N 33°50' E 132°19'312.2
2017-Dec-09 11:54N 33°51' E 132°23'1012.9
2017-Dec-09 11:06N 33°57' E 132°32'213.9
2017-Dec-09 10:58N 33°59' E 132°34'612.9
2017-Dec-09 10:30N 34°02' E 132°39'103 3.8
2017-Dec-08 07:09N 34°42' E 134°35'210.1
2017-Dec-08 07:00N 34°41' E 134°37'510.2
2017-Dec-08 06:30N 34°40' E 134°43'510.2
2017-Dec-08 06:00N 34°39' E 134°49'510.2
2017-Dec-08 05:30N 34°37' E 134°55'611.2
2017-Dec-08 05:00N 34°37' E 135°01'611.1
2017-Dec-08 04:30N 34°36' E 135°08'611.8
2017-Dec-08 04:00N 34°37' E 135°15'611.3
2017-Dec-08 03:30N 34°39' E 135°22'4 8.9
2017-Dec-08 03:00N 34°39' E 135°27'0 0.4
2017-Dec-08 02:30N 34°39' E 135°28'0 0.0
2017-Dec-08 02:00N 34°39' E 135°28'0 0.0
2017-Dec-08 01:30N 34°39' E 135°28'0 0.0
2017-Dec-08 01:00N 34°39' E 135°28'0 0.0
2017-Dec-08 00:30N 34°39' E 135°28'0 0.0
2017-Dec-08 00:00N 34°39' E 135°28'0 0.0
2017-Dec-07 23:30N 34°39' E 135°28'0 0.0
2017-Dec-07 23:00N 34°39' E 135°28'0 0.0
2017-Dec-07 22:30N 34°39' E 135°28'0 0.0
2017-Dec-07 21:59N 34°39' E 135°28'0 0.0
2017-Dec-07 21:30N 34°39' E 135°28'0 0.0
2017-Dec-07 20:59N 34°39' E 135°28'0 0.1
2017-Dec-07 20:29N 34°39' E 135°28'2 4.1
2017-Dec-07 20:00N 34°39' E 135°25'510.0
2017-Dec-07 19:30N 34°36' E 135°20'510.9
2017-Dec-07 19:00N 34°32' E 135°16'510.9
2017-Dec-07 18:30N 34°28' E 135°12'510.1
2017-Dec-07 18:00N 34°24' E 135°08'510.7
2017-Dec-07 17:30N 34°19' E 135°04'5 9.4
2017-Dec-07 17:01N 34°15' E 135°03'611.2
2017-Dec-07 16:30N 34°09' E 135°02'611.4
2017-Dec-07 16:00N 34°03' E 135°02'611.5
2017-Dec-07 15:30N 33°58' E 135°02'  
Track history (hours):
 
Tides and Currents Weather Stations Pressure Air Temp Water Temp Dewpoint Dewpoint Depression Visibility Wind Speed Wind Dir Waves Ship Positions

Geian Maru

Last reported at 2017-Dec-17 00:00 UTC. Time now 2017-Dec-17 00:29 UTC.
Position N 33°59' E 130°59'.

Length 62 m; draft 4.3 m.

Type: Cargo ship. MMSI: 431008867.

Date/timePositionNaut miles runAvg speedWind from/ knotsBaromVisibWave heightAir tempDewpointWater temp
2017-Dec-17 00:00N 33°59' E 130°59'510.7
2017-Dec-16 23:30N 33°57' E 131°05'0 0.6
2017-Dec-16 22:59N 33°57' E 131°06'0 0.0
2017-Dec-16 22:28N 33°57' E 131°06'0 0.0
2017-Dec-16 21:58N 33°57' E 131°06'0 0.0
2017-Dec-16 21:28N 33°57' E 131°06'0 0.0
2017-Dec-16 20:58N 33°57' E 131°06'0 0.0
2017-Dec-16 20:28N 33°57' E 131°06'0 0.0
2017-Dec-16 19:55N 33°57' E 131°06'0 0.0
2017-Dec-16 19:25N 33°57' E 131°06'0 0.0
2017-Dec-16 18:58N 33°57' E 131°06'0 0.0
2017-Dec-16 18:28N 33°57' E 131°06'0 0.0
2017-Dec-16 17:58N 33°57' E 131°06'0 0.0
2017-Dec-16 17:28N 33°57' E 131°06'0 0.0
2017-Dec-16 16:58N 33°57' E 131°06'0 0.0
2017-Dec-16 16:28N 33°57' E 131°06'0 0.0
2017-Dec-16 15:58N 33°57' E 131°06'0 0.0
2017-Dec-16 15:28N 33°57' E 131°06'0 0.0
2017-Dec-16 14:58N 33°57' E 131°06'0 0.0
2017-Dec-16 14:28N 33°57' E 131°06'0 0.0
2017-Dec-16 13:58N 33°57' E 131°06'0 0.0
2017-Dec-16 13:28N 33°57' E 131°06'0 0.0
2017-Dec-16 12:58N 33°57' E 131°06'0 0.0
2017-Dec-16 12:28N 33°57' E 131°06'0 0.0
2017-Dec-16 11:58N 33°57' E 131°06'0 0.0
2017-Dec-16 11:28N 33°57' E 131°06'0 0.0
2017-Dec-16 10:58N 33°57' E 131°06'1 2.3
2017-Dec-16 10:30N 33°56' E 131°06'510.8
2017-Dec-16 10:00N 33°51' E 131°10'510.6
2017-Dec-16 09:31N 33°49' E 131°15'510.9
2017-Dec-16 09:00N 33°46' E 131°21'510.7
2017-Dec-16 08:31N 33°45' E 131°27'510.3
2017-Dec-16 08:00N 33°43' E 131°33'510.0
2017-Dec-16 07:30N 33°42' E 131°39'610.0
2017-Dec-16 06:56N 33°38' E 131°44'511.1
2017-Dec-16 06:31N 33°34' E 131°47'611.2
2017-Dec-16 05:59N 33°28' E 131°46'510.9
2017-Dec-16 05:30N 33°23' E 131°43'510.6
2017-Dec-16 05:00N 33°19' E 131°40'3 0.2
2017-Dec-15 12:10N 33°16' E 131°40'2 6.8
2017-Dec-15 11:52N 33°18' E 131°40'512.3
2017-Dec-15 11:29N 33°20' E 131°45'1111.8
2017-Dec-15 10:31N 33°29' E 131°54'012.3
2017-Dec-15 10:29N 33°29' E 131°55'3511.9
2017-Dec-15 07:35N 33°48' E 132°29'112.2
2017-Dec-15 07:30N 33°49' E 132°30'612.0
2017-Dec-15 07:00N 33°53' E 132°36'912.5
2017-Dec-15 06:19N 33°59' E 132°43'98 2.3
2017-Dec-13 11:06N 34°41' E 134°30'111.0
2017-Dec-13 11:00N 34°41' E 134°31'510.0
2017-Dec-13 10:30N 34°41' E 134°37'510.4
2017-Dec-13 10:00N 34°40' E 134°43'510.5
2017-Dec-13 09:30N 34°39' E 134°49'510.7
2017-Dec-13 09:00N 34°37' E 134°56'611.1
2017-Dec-13 08:31N 34°37' E 135°02'510.8
2017-Dec-13 08:01N 34°36' E 135°09'510.8
2017-Dec-13 07:30N 34°37' E 135°15'510.6
2017-Dec-13 07:00N 34°36' E 135°22'4 8.5
2017-Dec-13 06:30N 34°35' E 135°27'0 0.2
2017-Dec-13 05:58N 34°35' E 135°27'0 0.0
2017-Dec-13 05:25N 34°35' E 135°27'0 0.0
2017-Dec-13 04:52N 34°35' E 135°27'0 0.0
2017-Dec-13 04:28N 34°35' E 135°27'0 0.0
2017-Dec-13 03:58N 34°35' E 135°27'0 0.0
2017-Dec-13 03:28N 34°35' E 135°27'0 0.0
2017-Dec-13 02:52N 34°35' E 135°27'0 0.0
2017-Dec-13 02:28N 34°35' E 135°27'0 0.0
2017-Dec-13 01:58N 34°35' E 135°27'0 0.0
2017-Dec-13 01:28N 34°35' E 135°27'0 0.0
2017-Dec-13 00:58N 34°35' E 135°27'0 0.0
2017-Dec-13 00:28N 34°35' E 135°27'0 0.0
2017-Dec-12 23:58N 34°35' E 135°27'0 0.0
2017-Dec-12 23:25N 34°35' E 135°27'0 0.0
2017-Dec-12 22:58N 34°35' E 135°27'0 0.1
2017-Dec-12 22:31N 34°35' E 135°27'0 0.8
2017-Dec-12 21:58N 34°35' E 135°27'0 0.0
2017-Dec-12 21:30N 34°35' E 135°27'0 0.0
2017-Dec-12 20:57N 34°35' E 135°27'0 0.0
2017-Dec-12 20:30N 34°35' E 135°27'0 0.0
2017-Dec-12 20:00N 34°35' E 135°27'0 0.0
2017-Dec-12 19:30N 34°35' E 135°27'0 0.0
2017-Dec-12 19:00N 34°35' E 135°27'0 0.0
2017-Dec-12 18:30N 34°35' E 135°27'0 0.0
2017-Dec-12 18:00N 34°35' E 135°27'0 0.0
2017-Dec-12 17:30N 34°35' E 135°27'0 0.0
2017-Dec-12 17:00N 34°35' E 135°27'0 0.0
2017-Dec-12 16:27N 34°35' E 135°27'0 0.0
2017-Dec-12 16:00N 34°35' E 135°27'0 0.0
2017-Dec-12 15:30N 34°35' E 135°27'0 0.0
2017-Dec-12 15:00N 34°35' E 135°27'0 0.0
2017-Dec-12 14:30N 34°35' E 135°27'0 0.0
2017-Dec-12 14:00N 34°35' E 135°27'0 0.0
2017-Dec-12 13:30N 34°35' E 135°27'0 0.0
2017-Dec-12 13:00N 34°35' E 135°27'0 0.0
2017-Dec-12 12:30N 34°35' E 135°27'0 0.0
2017-Dec-12 12:00N 34°35' E 135°27'0 0.0
2017-Dec-12 11:30N 34°35' E 135°27'0 0.0
2017-Dec-12 11:00N 34°35' E 135°27'0 0.0
2017-Dec-12 10:30N 34°35' E 135°27'0 0.0
2017-Dec-12 10:00N 34°35' E 135°27'0 0.2
2017-Dec-12 09:28N 34°35' E 135°27'1 1.1
2017-Dec-12 08:55N 34°35' E 135°26'0 0.0
2017-Dec-12 08:28N 34°35' E 135°26'0 0.0
2017-Dec-12 07:55N 34°35' E 135°26'0 0.0
2017-Dec-12 07:28N 34°35' E 135°26'0 0.0
2017-Dec-12 06:55N 34°35' E 135°26'0 0.0
2017-Dec-12 06:25N 34°35' E 135°26'0 0.0
2017-Dec-12 05:58N 34°35' E 135°26'0 0.0
2017-Dec-12 05:25N 34°35' E 135°26'0 0.0
2017-Dec-12 04:58N 34°35' E 135°26'0 0.0
2017-Dec-12 04:28N 34°35' E 135°26'0 0.0
2017-Dec-12 03:58N 34°35' E 135°26'0 0.0
2017-Dec-12 03:28N 34°35' E 135°26'0 0.0
2017-Dec-12 02:58N 34°35' E 135°26'0 0.0
2017-Dec-12 02:25N 34°35' E 135°26'0 0.0
2017-Dec-12 01:58N 34°35' E 135°26'0 0.0
2017-Dec-12 01:28N 34°35' E 135°26'0 0.0
2017-Dec-12 00:58N 34°35' E 135°26'1 2.8
2017-Dec-12 00:31N 34°36' E 135°25'510.3
2017-Dec-12 00:00N 34°35' E 135°19'510.6
2017-Dec-11 23:31N 34°35' E 135°12'611.5
2017-Dec-11 23:00N 34°35' E 135°05'611.4
2017-Dec-11 22:31N 34°37' E 134°59'611.2
2017-Dec-11 22:00N 34°35' E 134°53'510.8
2017-Dec-11 21:30N 34°33' E 134°47'510.7
2017-Dec-11 21:00N 34°31' E 134°40'611.6
2017-Dec-11 20:29N 34°32' E 134°33'95 9.6
2017-Dec-11 10:40N 34°04' E 132°44'211.0
2017-Dec-11 10:30N 34°03' E 132°42'510.7
2017-Dec-11 10:00N 34°00' E 132°36'27 9.8
2017-Dec-11 07:18N 33°51' E 132°06'510.3
2017-Dec-11 06:48N 33°53' E 132°01'411.0
2017-Dec-11 06:24N 33°56' E 131°57'2 5.5
2017-Dec-11 06:00N 33°57' E 131°56'0 0.0
2017-Dec-11 05:30N 33°57' E 131°56'2 0.0
2017-Dec-09 13:56N 33°56' E 131°56'811.9
2017-Dec-09 13:17N 33°52' E 132°04'310.4
2017-Dec-09 13:00N 33°50' E 132°07'1012.0
2017-Dec-09 12:10N 33°50' E 132°19'312.2
2017-Dec-09 11:54N 33°51' E 132°23'1012.9
2017-Dec-09 11:06N 33°57' E 132°32'213.9
2017-Dec-09 10:58N 33°59' E 132°34'612.9
2017-Dec-09 10:30N 34°02' E 132°39'103 3.8
2017-Dec-08 07:09N 34°42' E 134°35'210.1
2017-Dec-08 07:00N 34°41' E 134°37'510.2
2017-Dec-08 06:30N 34°40' E 134°43'510.2
2017-Dec-08 06:00N 34°39' E 134°49'510.2
2017-Dec-08 05:30N 34°37' E 134°55'611.2
2017-Dec-08 05:00N 34°37' E 135°01'611.1
2017-Dec-08 04:30N 34°36' E 135°08'611.8
2017-Dec-08 04:00N 34°37' E 135°15'611.3
2017-Dec-08 03:30N 34°39' E 135°22'4 8.9
2017-Dec-08 03:00N 34°39' E 135°27'0 0.4
2017-Dec-08 02:30N 34°39' E 135°28'0 0.0
2017-Dec-08 02:00N 34°39' E 135°28'0 0.0
2017-Dec-08 01:30N 34°39' E 135°28'0 0.0
2017-Dec-08 01:00N 34°39' E 135°28'0 0.0
2017-Dec-08 00:30N 34°39' E 135°28'0 0.0
2017-Dec-08 00:00N 34°39' E 135°28'0 0.0
2017-Dec-07 23:30N 34°39' E 135°28'0 0.0
2017-Dec-07 23:00N 34°39' E 135°28'0 0.0
2017-Dec-07 22:30N 34°39' E 135°28'0 0.0
2017-Dec-07 21:59N 34°39' E 135°28'0 0.0
2017-Dec-07 21:30N 34°39' E 135°28'0 0.0
2017-Dec-07 20:59N 34°39' E 135°28'0 0.1
2017-Dec-07 20:29N 34°39' E 135°28'2 4.1
2017-Dec-07 20:00N 34°39' E 135°25'510.0
2017-Dec-07 19:30N 34°36' E 135°20'510.9
2017-Dec-07 19:00N 34°32' E 135°16'510.9
2017-Dec-07 18:30N 34°28' E 135°12'510.1
2017-Dec-07 18:00N 34°24' E 135°08'510.7
2017-Dec-07 17:30N 34°19' E 135°04'5 9.4
2017-Dec-07 17:01N 34°15' E 135°03'611.2
2017-Dec-07 16:30N 34°09' E 135°02'611.4
2017-Dec-07 16:00N 34°03' E 135°02'611.5
2017-Dec-07 15:30N 33°58' E 135°02'  

Dump ship's entire track history